Time;durP1;ratioP1;P1;durP2;ratioP2;P2;SDS_P1;SDS_P2;PMS_P1;PMS_P2;Temp;Humidity;BMP_temperature;BMP_pressure;BME280_temperature;BME280_humidity;BME280_pressure;Samples;Min_cycle;Max_cycle;Signal;HPM_P1;HPM_P2
2023/05/24 00:01:09;;;;;;;11.27;5.33;;;10.50;63.90;;;;;;6329701;27;20266;-81
2023/05/24 00:04:13;;;;;;;9.87;5.40;;;10.50;63.90;;;;;;6335423;27;20236;-78
2023/05/24 00:07:17;;;;;;;14.40;5.90;;;10.40;64.00;;;;;;6327122;27;20220;-79
2023/05/24 00:10:20;;;;;;;6.50;5.17;;;10.40;63.80;;;;;;6322437;27;20275;-78
2023/05/24 00:13:24;;;;;;;8.87;4.80;;;10.50;63.70;;;;;;6316779;28;20251;-80
2023/05/24 00:16:28;;;;;;;10.73;4.77;;;10.40;64.00;;;;;;6312559;28;20242;-83
2023/05/24 00:19:31;;;;;;;15.87;5.07;;;10.40;63.90;;;;;;6305675;28;20256;-83
2023/05/24 00:22:35;;;;;;;11.47;5.33;;;10.40;63.60;;;;;;6296797;28;20241;-82
2023/05/24 00:25:38;;;;;;;16.20;5.80;;;10.40;63.60;;;;;;6292853;28;20217;-82
2023/05/24 00:28:41;;;;;;;13.43;4.33;;;10.50;63.40;;;;;;6290978;27;20378;-83
2023/05/24 00:31:46;;;;;;;12.37;4.80;;;10.40;63.50;;;;;;6322126;27;20343;-84
2023/05/24 00:34:50;;;;;;;9.37;4.27;;;10.40;63.30;;;;;;6297841;27;20229;-81
2023/05/24 00:37:53;;;;;;;8.97;4.30;;;10.30;63.30;;;;;;6291348;27;20868;-83
2023/05/24 00:40:58;;;;;;;10.57;4.90;;;10.40;63.30;;;;;;6299438;28;20267;-82
2023/05/24 00:44:01;;;;;;;10.50;5.20;;;10.40;63.30;;;;;;6302192;28;20390;-84
2023/05/24 00:47:07;;;;;;;5.73;4.70;;;10.40;63.30;;;;;;6299082;28;20233;-83
2023/05/24 00:50:15;;;;;;;8.30;4.23;;;10.40;63.10;;;;;;6298940;28;20290;-82
2023/05/24 00:53:19;;;;;;;8.73;4.73;;;10.40;63.20;;;;;;6297244;27;20241;-84
2023/05/24 00:56:22;;;;;;;7.77;4.37;;;10.40;63.30;;;;;;6305596;28;20379;-82
2023/05/24 00:59:26;;;;;;;9.30;4.07;;;10.40;63.10;;;;;;6339229;27;20246;-80
2023/05/24 01:02:31;;;;;;;10.00;4.87;;;10.40;63.00;;;;;;6329173;28;20229;-82
2023/05/24 01:05:34;;;;;;;10.60;5.20;;;10.50;63.30;;;;;;6331244;27;20256;-85
2023/05/24 01:08:47;;;;;;;9.97;4.47;;;10.50;63.00;;;;;;6338509;27;20225;-83
2023/05/24 01:12:03;;;;;;;13.73;5.37;;;10.50;63.10;;;;;;6344453;27;20225;-79
2023/05/24 01:15:15;;;;;;;10.60;4.43;;;10.50;62.80;;;;;;6337700;28;20220;-79
2023/05/24 01:18:29;;;;;;;7.70;4.60;;;10.50;63.00;;;;;;6334028;28;20225;-79
2023/05/24 01:21:47;;;;;;;9.03;4.53;;;10.50;62.90;;;;;;6339163;28;20369;-81
2023/05/24 01:25:01;;;;;;;8.40;4.80;;;10.50;63.00;;;;;;6329179;28;20241;-83
2023/05/24 01:28:08;;;;;;;9.60;4.30;;;10.60;62.90;;;;;;6316994;27;20240;-84
2023/05/24 01:31:13;;;;;;;9.87;4.53;;;10.50;63.20;;;;;;6310731;28;20256;-85
2023/05/24 01:34:16;;;;;;;8.70;4.83;;;10.50;63.30;;;;;;6302342;28;20247;-81
2023/05/24 01:37:19;;;;;;;16.17;4.63;;;10.60;63.00;;;;;;6325121;28;20236;-84
2023/05/24 01:40:22;;;;;;;10.80;4.33;;;10.50;63.10;;;;;;6316551;28;20241;-84
2023/05/24 01:43:32;;;;;;;7.07;4.87;;;10.50;63.30;;;;;;6293229;27;20232;-83
2023/05/24 01:46:37;;;;;;;10.73;5.03;;;10.40;63.10;;;;;;6314151;27;20937;-82
2023/05/24 01:49:48;;;;;;;8.40;4.27;;;10.50;62.80;;;;;;6310647;27;20743;-82
2023/05/24 01:52:53;;;;;;;7.60;4.40;;;10.50;62.90;;;;;;6290886;27;20233;-81
2023/05/24 01:55:59;;;;;;;6.53;4.47;;;10.40;63.20;;;;;;6279476;28;20312;-83
2023/05/24 01:59:06;;;;;;;9.07;4.23;;;10.40;63.20;;;;;;6281785;28;20265;-83
2023/05/24 02:02:10;;;;;;;10.30;4.60;;;10.50;63.50;;;;;;6297549;27;20244;-83
2023/05/24 02:05:13;;;;;;;8.17;4.23;;;10.50;63.40;;;;;;6289278;28;20268;-83
2023/05/24 02:08:17;;;;;;;12.77;4.80;;;10.50;64.00;;;;;;6285882;28;20295;-84
2023/05/24 02:11:20;;;;;;;9.27;4.83;;;10.50;63.80;;;;;;6287583;28;20316;-81
2023/05/24 02:14:25;;;;;;;12.13;4.90;;;10.50;64.10;;;;;;6292523;28;20378;-83
2023/05/24 02:17:31;;;;;;;11.27;4.97;;;10.50;64.30;;;;;;6287031;28;20245;-83
2023/05/24 02:20:36;;;;;;;11.00;4.97;;;10.50;64.20;;;;;;6294312;27;20239;-83
2023/05/24 02:23:40;;;;;;;8.30;4.87;;;10.50;64.50;;;;;;6290359;28;20351;-85
2023/05/24 02:26:43;;;;;;;10.07;4.77;;;10.50;64.60;;;;;;6276725;28;20873;-81
2023/05/24 02:29:48;;;;;;;11.10;4.73;;;10.50;64.50;;;;;;6280124;27;20244;-83
2023/05/24 02:32:52;;;;;;;8.17;4.43;;;10.50;64.80;;;;;;6292175;27;20233;-80
2023/05/24 02:35:55;;;;;;;11.77;5.27;;;10.40;64.80;;;;;;6287711;28;20740;-83
2023/05/24 02:38:58;;;;;;;9.67;4.33;;;10.50;64.80;;;;;;6278816;28;20241;-83
2023/05/24 02:42:03;;;;;;;11.43;4.40;;;10.50;64.70;;;;;;6298432;28;20310;-82
2023/05/24 02:45:09;;;;;;;7.10;4.70;;;10.40;64.90;;;;;;6297026;28;20234;-82
2023/05/24 02:48:12;;;;;;;8.50;4.67;;;10.40;64.80;;;;;;6283708;28;20624;-82
2023/05/24 02:51:16;;;;;;;8.30;4.60;;;10.40;65.00;;;;;;6297649;28;20237;-84
2023/05/24 02:54:19;;;;;;;7.33;5.00;;;10.40;65.00;;;;;;6287998;28;20237;-82
2023/05/24 02:57:22;;;;;;;4.97;4.27;;;10.40;65.00;;;;;;6289955;28;20252;-85
2023/05/24 03:00:27;;;;;;;12.93;5.00;;;10.40;65.00;;;;;;6310914;27;20228;-85
2023/05/24 03:03:31;;;;;;;13.53;4.73;;;10.40;65.10;;;;;;6297688;27;20243;-82
2023/05/24 03:06:34;;;;;;;6.67;4.90;;;10.30;65.10;;;;;;6307278;27;20863;-83
2023/05/24 03:09:38;;;;;;;13.97;5.43;;;10.30;65.20;;;;;;6285083;28;20234;-83
2023/05/24 03:12:41;;;;;;;12.13;5.47;;;10.30;65.40;;;;;;6296441;27;20323;-82
2023/05/24 03:15:45;;;;;;;11.13;5.40;;;10.30;65.40;;;;;;6291539;27;20267;-81
2023/05/24 03:18:49;;;;;;;8.80;4.63;;;10.30;65.80;;;;;;6284469;28;20230;-84
2023/05/24 03:21:53;;;;;;;11.13;5.27;;;10.20;65.80;;;;;;6302615;28;20229;-82
2023/05/24 03:24:57;;;;;;;13.43;5.63;;;10.20;65.70;;;;;;6313134;28;20261;-83
2023/05/24 03:28:01;;;;;;;15.20;4.80;;;10.20;65.70;;;;;;6301395;28;20266;-85
2023/05/24 03:31:06;;;;;;;15.73;5.53;;;10.10;65.80;;;;;;6317097;28;20334;-78
2023/05/24 03:34:09;;;;;;;12.93;5.00;;;10.20;65.80;;;;;;6291146;27;20609;-78
2023/05/24 03:37:12;;;;;;;12.30;5.63;;;10.10;65.90;;;;;;6288920;27;20279;-79
2023/05/24 03:40:15;;;;;;;10.57;5.20;;;10.20;65.80;;;;;;6288310;28;20345;-79
2023/05/24 03:43:18;;;;;;;13.50;5.37;;;10.20;66.00;;;;;;6303202;27;20247;-79
2023/05/24 03:46:23;;;;;;;8.67;5.13;;;10.20;65.80;;;;;;6296781;27;20229;-79
2023/05/24 03:49:26;;;;;;;14.33;5.40;;;10.20;65.50;;;;;;6290708;28;20889;-82
2023/05/24 03:52:29;;;;;;;10.73;5.23;;;10.20;65.60;;;;;;6290973;28;20246;-80
2023/05/24 03:55:33;;;;;;;8.83;4.70;;;10.20;65.70;;;;;;6279446;28;20233;-78
2023/05/24 03:58:36;;;;;;;11.57;5.73;;;10.20;65.70;;;;;;6296357;27;20234;-77
2023/05/24 04:01:40;;;;;;;9.60;4.60;;;10.20;65.40;;;;;;6284914;28;20244;-78
2023/05/24 04:04:45;;;;;;;7.77;4.60;;;10.30;65.20;;;;;;6321516;27;20365;-79
2023/05/24 04:07:48;;;;;;;6.63;4.30;;;10.30;65.10;;;;;;6305194;27;20228;-82
2023/05/24 04:10:53;;;;;;;7.87;4.37;;;10.30;65.20;;;;;;6311503;27;20232;-82
2023/05/24 04:13:59;;;;;;;10.77;4.53;;;10.50;65.20;;;;;;6295854;27;20843;-79
2023/05/24 04:17:04;;;;;;;18.60;5.73;;;10.50;64.40;;;;;;6286819;27;20245;-80
2023/05/24 04:20:08;;;;;;;9.47;4.87;;;10.50;64.50;;;;;;6300899;28;20232;-80
2023/05/24 04:23:12;;;;;;;7.90;5.00;;;10.60;64.20;;;;;;6292685;27;20390;-82
2023/05/24 04:26:16;;;;;;;9.30;4.87;;;10.70;64.30;;;;;;6294204;28;20737;-79
2023/05/24 04:29:19;;;;;;;7.70;4.87;;;10.70;64.00;;;;;;6296430;27;20312;-76
2023/05/24 04:32:25;;;;;;;10.97;4.57;;;10.70;63.70;;;;;;6297372;28;20351;-79
2023/05/24 04:35:29;;;;;;;5.77;4.10;;;10.60;63.70;;;;;;6286286;28;20244;-80
2023/05/24 04:38:33;;;;;;;12.13;4.97;;;10.60;63.80;;;;;;6287160;28;20614;-79
2023/05/24 04:41:37;;;;;;;11.50;5.13;;;10.60;64.10;;;;;;6301481;28;20351;-78
2023/05/24 04:44:41;;;;;;;10.00;5.60;;;10.70;64.00;;;;;;6302033;28;20721;-77
2023/05/24 04:47:45;;;;;;;10.80;5.10;;;10.80;63.90;;;;;;6288615;28;20319;-78
2023/05/24 04:50:49;;;;;;;14.73;5.63;;;10.80;63.90;;;;;;6292656;28;20248;-79
2023/05/24 04:53:52;;;;;;;10.17;5.33;;;10.70;63.90;;;;;;6293612;28;20240;-78
2023/05/24 04:56:55;;;;;;;11.67;5.00;;;10.70;63.70;;;;;;6286235;28;20591;-80
2023/05/24 04:59:58;;;;;;;8.33;4.97;;;10.70;64.10;;;;;;6289816;28;20233;-79
2023/05/24 05:03:04;;;;;;;15.63;6.20;;;10.70;63.90;;;;;;6282479;28;20253;-78
2023/05/24 05:06:07;;;;;;;14.27;5.80;;;10.60;63.80;;;;;;6286770;28;20299;-80
2023/05/24 05:09:12;;;;;;;15.70;5.03;;;10.60;64.10;;;;;;6282810;28;20333;-78
2023/05/24 05:12:15;;;;;;;17.40;8.37;;;10.40;64.20;;;;;;6288035;28;20245;-77
2023/05/24 05:15:19;;;;;;;10.07;6.20;;;10.30;64.60;;;;;;6286197;28;20237;-79
2023/05/24 05:18:24;;;;;;;14.53;6.50;;;10.40;64.50;;;;;;6288495;28;20246;-80
2023/05/24 05:21:28;;;;;;;12.67;6.23;;;10.60;64.30;;;;;;6291352;27;20299;-79
2023/05/24 05:24:33;;;;;;;14.40;5.70;;;10.60;63.80;;;;;;6286914;27;20324;-79
2023/05/24 05:27:37;;;;;;;18.33;6.07;;;10.60;63.40;;;;;;6285192;27;20233;-80
2023/05/24 05:30:40;;;;;;;17.07;6.13;;;10.70;63.40;;;;;;6284364;27;20321;-80
2023/05/24 05:33:45;;;;;;;15.67;6.77;;;10.70;63.20;;;;;;6277796;28;20229;-76
2023/05/24 05:36:48;;;;;;;14.37;5.33;;;10.70;63.10;;;;;;6288664;27;20241;-78
2023/05/24 05:39:51;;;;;;;21.23;6.57;;;10.70;62.90;;;;;;6282872;28;20284;-81
2023/05/24 05:42:54;;;;;;;20.53;6.93;;;10.80;62.70;;;;;;6291602;27;20236;-80
2023/05/24 05:45:59;;;;;;;16.17;6.50;;;10.80;62.60;;;;;;6284072;28;20237;-81
2023/05/24 05:49:04;;;;;;;15.53;6.13;;;10.80;62.60;;;;;;6286889;28;20641;-81
2023/05/24 05:52:07;;;;;;;22.67;7.20;;;10.90;62.50;;;;;;6283406;28;20266;-80
2023/05/24 05:55:11;;;;;;;16.10;6.30;;;11.00;62.30;;;;;;6280660;28;20225;-80
2023/05/24 05:58:14;;;;;;;16.33;6.73;;;11.10;62.20;;;;;;6295878;27;20332;-80
2023/05/24 06:01:17;;;;;;;17.07;7.13;;;11.10;62.50;;;;;;6280956;28;20247;-81
2023/05/24 06:04:24;;;;;;;22.23;6.80;;;11.10;62.80;;;;;;6288542;28;20228;-79
2023/05/24 06:07:27;;;;;;;19.10;7.20;;;11.10;62.50;;;;;;6282545;28;21631;-77
2023/05/24 06:10:31;;;;;;;18.57;7.07;;;11.00;63.00;;;;;;6302726;28;20233;-80
2023/05/24 06:13:34;;;;;;;19.77;7.23;;;11.10;62.70;;;;;;6293067;28;20240;-80
2023/05/24 06:16:40;;;;;;;22.50;6.60;;;11.40;62.30;;;;;;6285770;28;20776;-78
2023/05/24 06:19:45;;;;;;;12.23;5.93;;;11.10;62.50;;;;;;6283407;28;20237;-79
2023/05/24 06:22:49;;;;;;;18.43;7.47;;;11.20;62.60;;;;;;6304454;27;20316;-79
2023/05/24 06:25:52;;;;;;;19.63;6.90;;;11.30;62.50;;;;;;6301882;27;20251;-80
2023/05/24 06:28:55;;;;;;;15.90;6.17;;;11.40;62.30;;;;;;6282147;28;20226;-78
2023/05/24 06:31:58;;;;;;;18.57;6.73;;;11.50;62.50;;;;;;6290914;28;20353;-78
2023/05/24 06:35:04;;;;;;;16.20;7.80;;;11.70;62.40;;;;;;6282568;27;20237;-77
2023/05/24 06:38:07;;;;;;;21.47;7.00;;;11.60;62.20;;;;;;6286825;28;20879;-77
2023/05/24 06:41:10;;;;;;;20.40;7.20;;;11.60;62.10;;;;;;6287771;28;20392;-76
2023/05/24 06:44:15;;;;;;;13.43;6.77;;;11.70;62.10;;;;;;6280529;28;20306;-80
2023/05/24 06:47:18;;;;;;;20.17;7.53;;;11.60;62.50;;;;;;6297361;28;20245;-80
2023/05/24 06:50:23;;;;;;;20.57;8.70;;;11.50;62.90;;;;;;6299793;27;20236;-77
2023/05/24 06:53:27;;;;;;;13.80;6.83;;;11.50;62.90;;;;;;6285754;28;20316;-77
2023/05/24 06:56:30;;;;;;;21.70;7.83;;;11.70;62.50;;;;;;6288094;28;20870;-77
2023/05/24 06:59:33;;;;;;;19.83;7.10;;;11.70;62.50;;;;;;6284241;28;20792;-79
2023/05/24 07:02:37;;;;;;;14.13;6.70;;;11.80;62.50;;;;;;6295795;27;20746;-77
2023/05/24 07:05:41;;;;;;;20.87;7.63;;;11.70;62.30;;;;;;6291554;28;20241;-78
2023/05/24 07:08:44;;;;;;;24.80;8.07;;;11.70;62.40;;;;;;6284353;28;20713;-77
2023/05/24 07:11:47;;;;;;;19.57;7.37;;;11.70;62.20;;;;;;6286930;28;20315;-80
2023/05/24 07:14:52;;;;;;;24.27;7.63;;;11.70;62.70;;;;;;6286190;28;20860;-80
2023/05/24 07:17:55;;;;;;;20.43;7.97;;;11.50;63.30;;;;;;6288749;27;20233;-78
2023/05/24 07:20:59;;;;;;;15.70;7.47;;;11.60;63.00;;;;;;6289234;28;20778;-79
2023/05/24 07:24:03;;;;;;;23.17;7.80;;;11.70;62.80;;;;;;6287758;28;20356;-82
2023/05/24 07:27:06;;;;;;;19.80;7.47;;;11.90;62.70;;;;;;6286988;28;20857;-79
2023/05/24 07:30:11;;;;;;;20.23;6.57;;;11.90;62.30;;;;;;6293083;28;20291;-78
2023/05/24 07:33:33;;;;;;;14.80;6.77;;;12.10;62.00;;;;;;6289272;28;20234;-80
2023/05/24 07:36:39;;;;;;;16.03;7.80;;;12.20;61.80;;;;;;6291333;28;20234;-81
2023/05/24 07:39:42;;;;;;;22.47;8.67;;;12.10;61.80;;;;;;6276938;28;20229;-79
2023/05/24 07:42:46;;;;;;;18.87;7.13;;;12.10;62.10;;;;;;6290635;28;20780;-79
2023/05/24 07:45:49;;;;;;;24.13;8.50;;;12.20;61.80;;;;;;6305745;28;20241;-77
2023/05/24 07:48:52;;;;;;;16.50;7.93;;;12.20;62.00;;;;;;6292239;28;20229;-77
2023/05/24 07:51:58;;;;;;;13.57;7.63;;;12.40;62.00;;;;;;6300455;28;20692;-79
2023/05/24 07:55:01;;;;;;;23.50;9.10;;;12.70;61.40;;;;;;6290397;28;20236;-80
2023/05/24 07:58:04;;;;;;;16.73;8.00;;;12.50;61.30;;;;;;6291463;28;20925;-79
2023/05/24 08:01:07;;;;;;;16.43;7.73;;;12.80;61.00;;;;;;6289559;28;20233;-78
2023/05/24 08:04:10;;;;;;;21.00;7.37;;;13.00;60.90;;;;;;6289735;28;20803;-80
2023/05/24 08:07:16;;;;;;;19.63;8.47;;;13.20;60.00;;;;;;6290120;28;20229;-76
2023/05/24 08:10:20;;;;;;;13.07;8.37;;;13.30;59.70;;;;;;6288111;28;20244;-78
2023/05/24 08:13:23;;;;;;;11.13;7.93;;;13.40;59.20;;;;;;6299893;28;20264;-81
2023/05/24 08:16:27;;;;;;;14.60;7.63;;;13.30;60.00;;;;;;6288575;28;20274;-79
2023/05/24 08:19:34;;;;;;;19.47;7.83;;;13.50;59.30;;;;;;6298790;28;20335;-80
2023/05/24 08:22:39;;;;;;;16.63;7.50;;;13.30;59.40;;;;;;6305871;28;20236;-78
2023/05/24 08:25:42;;;;;;;17.30;7.30;;;13.30;60.00;;;;;;6292329;28;20654;-79
2023/05/24 08:28:46;;;;;;;14.07;6.60;;;13.20;59.60;;;;;;6275525;28;20246;-80
2023/05/24 08:31:49;;;;;;;21.80;7.67;;;13.00;59.70;;;;;;6285818;28;20241;-80
2023/05/24 08:34:54;;;;;;;16.20;7.67;;;12.70;60.00;;;;;;6280868;27;20632;-78
2023/05/24 08:38:19;;;;;;;20.10;7.40;;;12.50;60.50;;;;;;6275959;28;20253;-77
2023/05/24 08:41:22;;;;;;;13.90;6.37;;;12.60;60.70;;;;;;6311623;28;20301;-78
2023/05/24 08:44:28;;;;;;;13.60;6.80;;;12.60;61.10;;;;;;6294125;28;20404;-79
2023/05/24 08:47:32;;;;;;;11.80;6.43;;;12.70;60.80;;;;;;6291598;27;20233;-79
2023/05/24 08:50:36;;;;;;;17.17;6.27;;;12.70;60.40;;;;;;6288052;28;20826;-79
2023/05/24 08:53:47;;;;;;;10.83;6.17;;;12.60;61.00;;;;;;6289477;28;20233;-80
2023/05/24 08:56:51;;;;;;;12.63;6.60;;;12.70;60.50;;;;;;6291302;27;20230;-77
2023/05/24 08:59:55;;;;;;;15.17;7.33;;;12.80;60.70;;;;;;6289062;28;20225;-80
2023/05/24 09:03:00;;;;;;;13.87;6.83;;;12.90;60.10;;;;;;6287850;28;20240;-79
2023/05/24 09:06:03;;;;;;;16.13;6.27;;;12.80;60.80;;;;;;6283862;28;20238;-79
2023/05/24 09:09:09;;;;;;;19.63;7.23;;;12.60;61.20;;;;;;6288531;27;20260;-79
2023/05/24 09:12:17;;;;;;;14.83;6.90;;;12.60;61.20;;;;;;6285730;28;20241;-79
2023/05/24 09:15:40;;;;;;;14.20;6.27;;;12.80;60.50;;;;;;6282537;28;20233;-80
2023/05/24 09:18:45;;;;;;;13.30;6.57;;;12.90;60.60;;;;;;6285646;28;20250;-76
2023/05/24 09:21:49;;;;;;;11.87;6.43;;;13.00;60.20;;;;;;6291018;28;20295;-79
2023/05/24 09:24:58;;;;;;;11.87;6.93;;;13.10;59.70;;;;;;6286878;28;20313;-79
2023/05/24 09:28:07;;;;;;;11.63;6.20;;;13.10;59.50;;;;;;6290526;28;20240;-76
2023/05/24 09:31:11;;;;;;;12.10;5.70;;;13.00;59.60;;;;;;6289703;28;20371;-78
2023/05/24 09:34:15;;;;;;;12.33;5.93;;;13.00;59.60;;;;;;6281685;28;20299;-78
2023/05/24 09:37:22;;;;;;;8.03;5.83;;;13.30;59.50;;;;;;6290530;28;20233;-79
2023/05/24 09:40:34;;;;;;;11.63;5.43;;;13.50;58.60;;;;;;6280440;28;20336;-76
2023/05/24 09:43:48;;;;;;;13.90;5.90;;;13.70;58.20;;;;;;6283545;28;20252;-77
2023/05/24 09:46:51;;;;;;;11.60;5.87;;;14.00;57.40;;;;;;6292291;28;20260;-79
2023/05/24 09:49:55;;;;;;;12.67;5.70;;;14.10;57.40;;;;;;6285200;28;20236;-79
2023/05/24 09:52:58;;;;;;;13.37;5.93;;;14.30;57.00;;;;;;6294543;28;20237;-79
2023/05/24 09:56:04;;;;;;;10.93;7.03;;;14.40;57.50;;;;;;6288214;28;20826;-79
2023/05/24 09:59:08;;;;;;;14.23;6.97;;;14.00;58.00;;;;;;6307853;27;20578;-77
2023/05/24 10:02:12;;;;;;;12.07;6.33;;;13.90;57.60;;;;;;6296417;28;20233;-80
2023/05/24 10:05:16;;;;;;;9.33;5.97;;;14.00;57.50;;;;;;6300026;28;20235;-79
2023/05/24 10:08:20;;;;;;;11.53;6.03;;;13.70;57.70;;;;;;6305864;28;20889;-80
2023/05/24 10:11:25;;;;;;;13.23;5.57;;;13.90;58.20;;;;;;6283948;28;20304;-78
2023/05/24 10:14:29;;;;;;;15.20;6.00;;;13.80;57.50;;;;;;6298136;28;20228;-79
2023/05/24 10:17:32;;;;;;;11.60;6.27;;;13.90;57.20;;;;;;6280970;28;20241;-81
2023/05/24 10:20:36;;;;;;;11.80;6.23;;;14.10;57.60;;;;;;6292148;28;20894;-79
2023/05/24 10:23:43;;;;;;;11.20;5.53;;;14.00;57.50;;;;;;6289257;28;20241;-81
2023/05/24 10:26:49;;;;;;;10.77;5.93;;;14.20;57.40;;;;;;6289521;28;20240;-78
2023/05/24 10:30:01;;;;;;;13.80;5.80;;;13.90;57.90;;;;;;6296416;28;20318;-80
2023/05/24 10:33:08;;;;;;;10.73;5.63;;;13.90;58.30;;;;;;6284480;28;20254;-81
2023/05/24 10:36:14;;;;;;;9.30;5.00;;;14.00;56.60;;;;;;6287375;28;20278;-80
2023/05/24 10:39:21;;;;;;;10.83;5.13;;;13.90;57.20;;;;;;6295051;27;20355;-78
2023/05/24 10:42:26;;;;;;;14.13;6.20;;;14.10;57.40;;;;;;6281346;28;20328;-77
2023/05/24 10:45:34;;;;;;;9.00;5.30;;;14.40;57.10;;;;;;6278393;28;20249;-79
2023/05/24 10:48:39;;;;;;;11.20;5.43;;;14.70;58.20;;;;;;6303867;27;20884;-79
2023/05/24 10:51:43;;;;;;;8.50;5.03;;;15.00;56.20;;;;;;6287469;28;20279;-78
2023/05/24 10:55:02;;;;;;;9.53;5.10;;;15.40;55.60;;;;;;6283272;28;20700;-78
2023/05/24 10:58:12;;;;;;;8.07;5.27;;;15.30;54.10;;;;;;6289654;28;20442;-79
2023/05/24 11:01:26;;;;;;;6.37;5.10;;;15.40;55.60;;;;;;6286073;28;20238;-80
2023/05/24 11:04:36;;;;;;;9.20;4.83;;;15.60;54.00;;;;;;6306191;28;20234;-80
2023/05/24 11:07:42;;;;;;;7.83;4.90;;;15.80;53.90;;;;;;6276309;28;20756;-79
2023/05/24 11:10:46;;;;;;;8.97;4.60;;;15.90;54.30;;;;;;6290298;28;20768;-79
2023/05/24 11:13:56;;;;;;;5.83;4.27;;;16.10;53.80;;;;;;6286729;28;20225;-80
2023/05/24 11:17:00;;;;;;;7.10;4.60;;;16.30;53.00;;;;;;6282215;27;20248;-80
2023/05/24 11:20:07;;;;;;;11.60;4.80;;;16.00;53.40;;;;;;6313496;28;20257;-77
2023/05/24 11:23:11;;;;;;;7.90;4.93;;;15.90;54.10;;;;;;6290777;28;20256;-79
2023/05/24 11:26:15;;;;;;;8.13;4.93;;;15.60;54.30;;;;;;6282719;28;20241;-78
2023/05/24 11:29:21;;;;;;;7.93;4.77;;;15.80;54.70;;;;;;6283580;28;20728;-80
2023/05/24 11:32:24;;;;;;;9.40;4.83;;;15.70;54.50;;;;;;6278740;28;20972;-79
2023/05/24 11:35:28;;;;;;;6.77;5.20;;;15.80;53.50;;;;;;6282944;28;20803;-78
2023/05/24 11:38:31;;;;;;;9.07;5.17;;;15.80;54.00;;;;;;6285410;28;20751;-78
2023/05/24 11:41:39;;;;;;;8.93;4.67;;;15.80;53.60;;;;;;6288337;28;20363;-78
2023/05/24 11:44:44;;;;;;;6.90;4.90;;;15.60;54.20;;;;;;6297546;28;20306;-81
2023/05/24 11:47:49;;;;;;;8.03;4.77;;;15.60;54.30;;;;;;6298172;28;20825;-79
2023/05/24 11:50:52;;;;;;;6.43;4.70;;;15.20;55.00;;;;;;6285921;28;20232;-79
2023/05/24 11:53:56;;;;;;;8.67;4.73;;;15.10;55.20;;;;;;6279952;28;20233;-82
2023/05/24 11:57:01;;;;;;;5.67;4.60;;;15.10;55.50;;;;;;6285141;28;20222;-79
2023/05/24 12:00:10;;;;;;;7.23;4.00;;;15.30;54.80;;;;;;6285305;28;20261;-79
2023/05/24 12:03:13;;;;;;;8.63;4.30;;;15.70;55.50;;;;;;6285232;28;20240;-80
2023/05/24 12:06:17;;;;;;;5.73;4.70;;;16.10;53.50;;;;;;6311478;28;20859;-80
2023/05/24 12:09:20;;;;;;;7.80;4.30;;;16.00;52.70;;;;;;6284103;28;20311;-80
2023/05/24 12:12:23;;;;;;;6.33;4.77;;;16.20;52.30;;;;;;6279172;28;20375;-80
2023/05/24 12:15:37;;;;;;;5.43;4.30;;;16.30;52.10;;;;;;6292138;28;20599;-77
2023/05/24 12:18:40;;;;;;;6.30;4.10;;;16.30;52.40;;;;;;6296736;28;20334;-78
2023/05/24 12:21:58;;;;;;;6.07;4.00;;;16.60;51.40;;;;;;6276791;28;20379;-77
2023/05/24 12:25:04;;;;;;;7.47;4.57;;;16.80;51.40;;;;;;6290693;28;20228;-80
2023/05/24 12:28:07;;;;;;;9.10;3.93;;;16.90;51.00;;;;;;6290192;28;20806;-78
2023/05/24 12:31:11;;;;;;;4.50;4.00;;;16.80;51.60;;;;;;6294724;28;20235;-80
2023/05/24 12:34:17;;;;;;;8.87;4.40;;;16.70;51.90;;;;;;6286946;28;20230;-79
2023/05/24 12:37:21;;;;;;;4.77;3.80;;;16.60;51.80;;;;;;6288935;28;20238;-79
2023/05/24 12:40:24;;;;;;;5.47;4.33;;;16.30;52.90;;;;;;6290758;28;20621;-77
2023/05/24 12:43:29;;;;;;;10.00;4.43;;;16.10;53.70;;;;;;6293909;28;20320;-79
2023/05/24 12:46:33;;;;;;;5.50;4.47;;;16.00;53.40;;;;;;6309353;28;20646;-78
2023/05/24 12:49:36;;;;;;;9.70;4.87;;;16.10;53.50;;;;;;6289929;28;20237;-78
2023/05/24 12:52:40;;;;;;;9.23;4.77;;;16.00;53.80;;;;;;6299684;28;20233;-79
2023/05/24 12:55:44;;;;;;;9.67;4.50;;;16.00;54.30;;;;;;6294875;28;20240;-78
2023/05/24 12:58:48;;;;;;;5.33;4.80;;;16.00;53.80;;;;;;6300044;27;20308;-79
2023/05/24 13:01:53;;;;;;;7.17;4.67;;;15.80;54.00;;;;;;6297648;28;20298;-78
2023/05/24 13:04:56;;;;;;;6.37;4.10;;;15.30;54.80;;;;;;6284446;28;20218;-78
2023/05/24 13:07:59;;;;;;;9.30;5.03;;;15.30;54.80;;;;;;6314806;27;20473;-79
2023/05/24 13:11:02;;;;;;;7.50;4.17;;;15.70;54.30;;;;;;6293794;28;20244;-77
2023/05/24 13:14:06;;;;;;;7.27;4.57;;;15.60;53.60;;;;;;6289988;28;20411;-80
2023/05/24 13:17:10;;;;;;;4.80;4.07;;;15.50;53.30;;;;;;6285036;28;20240;-78
2023/05/24 13:20:14;;;;;;;6.40;4.37;;;15.60;53.70;;;;;;6287380;28;20264;-79
2023/05/24 13:23:18;;;;;;;9.27;4.40;;;15.80;52.80;;;;;;6295128;28;20302;-78
2023/05/24 13:26:22;;;;;;;4.97;4.47;;;16.30;51.60;;;;;;6290889;28;20241;-81
2023/05/24 13:29:25;;;;;;;5.17;4.53;;;16.60;51.00;;;;;;6333026;27;20227;-78
2023/05/24 13:32:46;;;;;;;8.73;4.40;;;16.80;51.90;;;;;;6290539;27;20358;-78
2023/05/24 13:35:49;;;;;;;9.03;4.50;;;17.00;51.40;;;;;;6290217;28;20233;-78
2023/05/24 13:38:53;;;;;;;7.57;4.47;;;16.90;51.70;;;;;;6289622;27;20387;-78
2023/05/24 13:42:15;;;;;;;10.07;5.23;;;17.00;52.00;;;;;;6289418;27;20257;-80
2023/05/24 13:45:18;;;;;;;5.40;4.07;;;17.00;52.10;;;;;;6289750;28;20244;-79
2023/05/24 13:48:22;;;;;;;5.33;4.57;;;17.20;52.10;;;;;;6288568;28;20233;-81
2023/05/24 13:51:25;;;;;;;5.23;4.73;;;17.10;52.50;;;;;;6289139;28;20305;-77
2023/05/24 13:54:29;;;;;;;6.83;4.77;;;17.00;51.90;;;;;;6288122;28;20244;-80
2023/05/24 13:57:32;;;;;;;6.33;4.40;;;17.00;52.10;;;;;;6290088;28;20282;-79
2023/05/24 14:00:41;;;;;;;7.37;4.83;;;17.10;51.80;;;;;;6289231;28;20364;-78
2023/05/24 14:03:46;;;;;;;8.13;4.27;;;17.00;51.60;;;;;;6288233;27;20244;-79
2023/05/24 14:06:49;;;;;;;5.50;4.57;;;17.20;51.90;;;;;;6283438;27;20714;-78
2023/05/24 14:09:53;;;;;;;8.90;4.83;;;17.20;50.70;;;;;;6288130;27;20705;-74
2023/05/24 14:12:56;;;;;;;5.27;4.33;;;17.20;51.40;;;;;;6292499;28;20241;-75
2023/05/24 14:16:19;;;;;;;5.93;4.30;;;17.50;50.80;;;;;;6279778;28;20246;-76
2023/05/24 14:19:24;;;;;;;9.33;4.83;;;17.80;50.40;;;;;;6292851;28;20844;-74
2023/05/24 14:22:28;;;;;;;9.33;4.90;;;17.80;50.50;;;;;;6297977;28;20363;-78
2023/05/24 14:25:31;;;;;;;8.60;5.37;;;17.70;50.30;;;;;;6288655;28;20256;-78
2023/05/24 14:28:34;;;;;;;7.93;4.53;;;17.80;50.70;;;;;;6293735;28;20317;-77
2023/05/24 14:31:41;;;;;;;10.00;4.60;;;18.00;49.70;;;;;;6293419;28;20318;-78
2023/05/24 14:34:45;;;;;;;10.27;5.23;;;18.00;49.30;;;;;;6291174;28;20253;-79
2023/05/24 14:37:49;;;;;;;6.90;4.73;;;18.10;49.00;;;;;;6291147;27;20737;-78
2023/05/24 14:40:52;;;;;;;7.70;4.60;;;18.00;49.20;;;;;;6294451;28;20879;-78
2023/05/24 14:43:55;;;;;;;5.00;4.10;;;17.80;49.70;;;;;;6294027;28;20646;-79
2023/05/24 14:46:58;;;;;;;5.47;4.50;;;17.80;50.00;;;;;;6295570;28;20245;-78
2023/05/24 14:50:03;;;;;;;5.70;4.80;;;17.80;50.50;;;;;;6286727;28;20237;-77
2023/05/24 14:53:08;;;;;;;6.53;4.50;;;17.70;50.10;;;;;;6295566;28;20237;-81
2023/05/24 14:56:13;;;;;;;9.90;5.50;;;17.60;51.00;;;;;;6288765;28;20247;-77
2023/05/24 14:59:16;;;;;;;6.97;4.83;;;17.50;51.00;;;;;;6304287;28;20729;-80
2023/05/24 15:02:19;;;;;;;5.70;4.03;;;17.40;51.20;;;;;;6286880;28;20246;-79
2023/05/24 15:05:25;;;;;;;8.17;4.93;;;17.50;51.00;;;;;;6297774;27;20792;-80
2023/05/24 15:08:28;;;;;;;8.17;5.33;;;17.60;51.20;;;;;;6288364;28;20231;-77
2023/05/24 15:11:31;;;;;;;7.37;4.73;;;17.50;51.40;;;;;;6295471;27;20334;-76
2023/05/24 15:14:36;;;;;;;6.43;4.20;;;18.00;51.00;;;;;;6295083;28;20233;-79
2023/05/24 15:17:39;;;;;;;11.67;4.93;;;18.50;50.30;;;;;;6321782;28;20271;-79
2023/05/24 15:20:43;;;;;;;7.23;5.10;;;18.80;49.50;;;;;;6315098;28;20218;-80
2023/05/24 15:23:47;;;;;;;8.93;4.70;;;18.70;49.50;;;;;;6323956;28;20221;-78
2023/05/24 15:26:50;;;;;;;5.50;4.10;;;18.50;49.20;;;;;;6330365;28;20229;-78
2023/05/24 15:29:57;;;;;;;7.67;4.73;;;18.40;50.00;;;;;;6339531;27;20243;-79
2023/05/24 15:33:00;;;;;;;4.23;3.87;;;18.50;49.70;;;;;;6322593;28;20305;-78
2023/05/24 15:36:05;;;;;;;5.47;3.90;;;18.70;49.30;;;;;;6326324;27;20242;-78
2023/05/24 15:39:10;;;;;;;6.63;4.40;;;18.90;48.90;;;;;;6320178;28;20232;-79
2023/05/24 15:42:14;;;;;;;7.00;4.53;;;18.20;49.20;;;;;;6329683;27;20228;-78
2023/05/24 15:45:17;;;;;;;5.50;3.97;;;18.00;49.90;;;;;;6313397;28;20213;-80
2023/05/24 15:48:21;;;;;;;4.83;4.33;;;18.00;49.90;;;;;;6315498;28;20221;-79
2023/05/24 15:51:26;;;;;;;5.47;4.57;;;18.00;49.10;;;;;;6324439;28;20237;-78
2023/05/24 15:54:32;;;;;;;7.10;4.80;;;18.00;50.00;;;;;;6312636;27;20232;-79